Time;durP1;ratioP1;P1;durP2;ratioP2;P2;SDS_P1;SDS_P2;PMS_P1;PMS_P2;Temp;Humidity;BMP_temperature;BMP_pressure;BME280_temperature;BME280_humidity;BME280_pressure;Samples;Min_cycle;Max_cycle;Signal;HPM_P1;HPM_P2
2022/10/09 00:01:13;;;;;;;;;;;;;;;8.02;75.22;102499.63;5033213;28;19916;-60
2022/10/09 00:03:40;;;;;;;;;;;;;;;7.98;75.25;102498.19;5023032;28;19924;-61
2022/10/09 00:06:05;;;;;;;;;;;;;;;7.94;75.45;102500.22;5030071;28;19921;-60
2022/10/09 00:08:32;;;;;;;;;;;;;;;7.91;75.44;102502.22;5024798;28;20524;-61
2022/10/09 00:10:57;;;;;;;;;;;;;;;7.90;75.36;102511.13;5027203;28;20368;-60
2022/10/09 00:13:22;;;;;;;;;;;;;;;7.85;75.86;102502.69;5026480;28;19917;-60
2022/10/09 00:15:48;;;;;;;;;;;;;;;7.78;75.68;102505.75;5028880;28;19967;-60
2022/10/09 00:18:14;;;;;;;;;;;;;;;7.78;75.77;102505.75;5025679;28;20036;-60
2022/10/09 00:20:40;;;;;;;;;;;;;;;7.77;75.81;102512.00;5031504;28;20300;-61
2022/10/09 00:23:05;;;;;;;;;;;;;;;7.78;76.08;102510.19;5031119;28;19917;-60
2022/10/09 00:25:31;;;;;;;;;;;;;;;7.76;76.06;102504.19;5024889;28;19936;-61
2022/10/09 00:27:57;;;;;;;;;;;;;;;7.74;76.14;102509.59;5026554;28;19922;-61
2022/10/09 00:30:22;;;;;;;;;;;;;;;7.68;76.22;102515.31;5027298;28;19917;-60
2022/10/09 00:32:47;;;;;;;;;;;;;;;7.60;76.25;102511.56;5020262;28;20367;-60
2022/10/09 00:35:12;;;;;;;;;;;;;;;7.55;76.43;102511.03;5027473;28;19917;-60
2022/10/09 00:37:37;;;;;;;;;;;;;;;7.50;76.42;102510.50;5027872;28;19944;-61
2022/10/09 00:40:03;;;;;;;;;;;;;;;7.46;76.39;102509.88;5029964;28;19925;-60
2022/10/09 00:42:28;;;;;;;;;;;;;;;7.48;76.37;102513.25;5025357;28;19923;-61
2022/10/09 00:44:59;;;;;;;;;;;;;;;7.46;76.33;102505.44;5024073;28;19917;-60
2022/10/09 00:47:34;;;;;;;;;;;;;;;7.45;76.56;102511.69;5024321;28;19936;-60
2022/10/09 00:50:02;;;;;;;;;;;;;;;7.44;76.66;102510.00;5026014;28;19917;-60
2022/10/09 00:52:28;;;;;;;;;;;;;;;7.44;76.50;102504.69;5026057;28;20396;-60
2022/10/09 00:54:54;;;;;;;;;;;;;;;7.45;76.70;102502.91;5028246;28;19924;-61
2022/10/09 00:57:19;;;;;;;;;;;;;;;7.46;76.62;102499.31;5030805;28;19920;-60
2022/10/09 00:59:45;;;;;;;;;;;;;;;7.49;76.62;102493.78;5023027;28;19917;-60
2022/10/09 01:02:10;;;;;;;;;;;;;;;7.42;76.96;102482.81;5023611;28;19924;-60
2022/10/09 01:04:35;;;;;;;;;;;;;;;7.52;77.02;102492.72;5032694;28;20027;-60
2022/10/09 01:07:08;;;;;;;;;;;;;;;7.52;76.76;102496.25;5028778;28;19928;-60
2022/10/09 01:09:47;;;;;;;;;;;;;;;7.51;76.87;102493.69;5030355;28;19928;-61
2022/10/09 01:12:24;;;;;;;;;;;;;;;7.49;76.92;102491.16;5021027;28;20544;-60
2022/10/09 01:14:54;;;;;;;;;;;;;;;7.47;76.75;102499.19;5029710;28;19917;-60
2022/10/09 01:17:40;;;;;;;;;;;;;;;7.45;76.74;102498.47;5020209;28;19976;-60
2022/10/09 01:20:15;;;;;;;;;;;;;;;7.39;76.77;102498.91;5024488;28;19956;-60
2022/10/09 01:23:01;;;;;;;;;;;;;;;7.39;76.68;102496.25;5030085;28;20531;-60
2022/10/09 01:25:44;;;;;;;;;;;;;;;7.36;76.63;102488.56;5018408;28;20375;-60
2022/10/09 01:28:11;;;;;;;;;;;;;;;7.34;76.78;102485.19;5024481;28;20369;-61
2022/10/09 01:30:36;;;;;;;;;;;;;;;7.31;76.63;102495.13;5029210;28;19929;-60
2022/10/09 01:33:02;;;;;;;;;;;;;;;7.28;76.75;102490.91;5032310;28;19980;-61
2022/10/09 01:35:28;;;;;;;;;;;;;;;7.27;76.75;102488.38;5027999;28;20277;-61
2022/10/09 01:37:53;;;;;;;;;;;;;;;7.24;76.89;102486.78;5025894;28;19975;-60
2022/10/09 01:40:19;;;;;;;;;;;;;;;7.21;76.89;102488.78;5026865;28;20312;-60
2022/10/09 01:42:47;;;;;;;;;;;;;;;7.17;76.87;102482.03;5028253;28;19975;-61
2022/10/09 01:45:13;;;;;;;;;;;;;;;7.08;76.68;102484.38;5021420;28;20435;-60
2022/10/09 01:47:38;;;;;;;;;;;;;;;7.02;76.49;102479.53;5025338;28;19925;-61
2022/10/09 01:50:19;;;;;;;;;;;;;;;7.02;76.50;102479.53;5029587;28;19924;-61
2022/10/09 01:52:52;;;;;;;;;;;;;;;7.01;76.60;102475.19;5025480;28;19971;-61
2022/10/09 01:55:33;;;;;;;;;;;;;;;7.02;76.73;102468.97;5031166;28;20533;-60
2022/10/09 01:58:16;;;;;;;;;;;;;;;7.06;76.77;102467.78;5026188;28;19929;-60
2022/10/09 02:00:45;;;;;;;;;;;;;;;7.06;76.58;102467.78;5028927;28;19921;-60
2022/10/09 02:03:11;;;;;;;;;;;;;;;7.04;76.67;102459.13;5025118;28;19921;-60
2022/10/09 02:05:39;;;;;;;;;;;;;;;7.01;76.77;102456.72;5027563;28;19921;-60
2022/10/09 02:08:05;;;;;;;;;;;;;;;6.93;76.87;102455.53;5028125;28;19916;-60
2022/10/09 02:10:32;;;;;;;;;;;;;;;6.86;77.08;102463.03;5032317;28;20416;-60
2022/10/09 02:12:59;;;;;;;;;;;;;;;6.78;77.17;102457.47;5028771;28;19943;-60
2022/10/09 02:15:29;;;;;;;;;;;;;;;6.74;76.84;102456.81;5029799;28;20384;-60
2022/10/09 02:17:56;;;;;;;;;;;;;;;6.72;77.03;102455.25;5030267;28;19922;-61
2022/10/09 02:20:26;;;;;;;;;;;;;;;6.71;76.80;102451.75;5027522;28;20046;-61
2022/10/09 02:22:52;;;;;;;;;;;;;;;6.72;77.01;102452.59;5033174;28;20296;-61
2022/10/09 02:25:17;;;;;;;;;;;;;;;6.71;76.71;102453.56;5025973;28;19921;-60
2022/10/09 02:27:43;;;;;;;;;;;;;;;6.71;77.05;102453.56;5026428;28;19987;-61
2022/10/09 02:30:09;;;;;;;;;;;;;;;6.73;76.95;102441.09;5029870;28;19916;-61
2022/10/09 02:32:34;;;;;;;;;;;;;;;6.76;77.07;102436.44;5026576;28;20032;-60
2022/10/09 02:35:00;;;;;;;;;;;;;;;6.79;76.92;102443.31;5025097;28;20059;-60
2022/10/09 02:37:25;;;;;;;;;;;;;;;6.76;76.91;102436.44;5026986;28;19927;-60
2022/10/09 02:39:50;;;;;;;;;;;;;;;6.74;77.14;102427.78;5027219;28;20478;-60
2022/10/09 02:42:15;;;;;;;;;;;;;;;6.72;76.96;102436.78;5029046;28;19949;-60
2022/10/09 02:44:41;;;;;;;;;;;;;;;6.67;76.95;102434.44;5027792;28;19921;-61
2022/10/09 02:47:06;;;;;;;;;;;;;;;6.67;76.98;102436.25;5031796;28;19942;-60
2022/10/09 02:49:31;;;;;;;;;;;;;;;6.66;76.74;102445.13;5033557;28;20679;-60
2022/10/09 02:51:56;;;;;;;;;;;;;;;6.65;77.12;102436.34;5032980;28;19921;-60
2022/10/09 02:54:22;;;;;;;;;;;;;;;6.66;77.02;102434.56;5030169;28;20400;-61
2022/10/09 02:56:47;;;;;;;;;;;;;;;6.66;76.93;102427.47;5027418;28;19924;-60
2022/10/09 02:59:12;;;;;;;;;;;;;;;6.67;77.11;102428.31;5029659;28;19913;-60
2022/10/09 03:01:37;;;;;;;;;;;;;;;6.65;77.03;102431.06;5028977;28;20461;-60
2022/10/09 03:04:03;;;;;;;;;;;;;;;6.65;77.18;102430.19;5029208;28;19920;-61
2022/10/09 03:06:28;;;;;;;;;;;;;;;6.62;77.28;102433.06;5024717;28;20163;-60
2022/10/09 03:08:54;;;;;;;;;;;;;;;6.58;77.22;102426.31;5026076;28;19921;-61
2022/10/09 03:11:20;;;;;;;;;;;;;;;6.56;77.07;102425.56;5027681;28;19920;-60
2022/10/09 03:13:46;;;;;;;;;;;;;;;6.54;77.23;102428.31;5022594;28;19929;-60
2022/10/09 03:16:12;;;;;;;;;;;;;;;6.53;77.31;102422.19;5031942;28;20415;-60
2022/10/09 03:18:38;;;;;;;;;;;;;;;6.52;77.34;102425.78;5035834;28;19917;-60
2022/10/09 03:21:07;;;;;;;;;;;;;;;6.52;77.21;102428.41;5024976;28;19967;-60
2022/10/09 03:23:32;;;;;;;;;;;;;;;6.55;77.27;102432.63;5028944;28;20031;-60
2022/10/09 03:25:58;;;;;;;;;;;;;;;6.54;77.55;102430.94;5029984;28;20586;-60
2022/10/09 03:28:24;;;;;;;;;;;;;;;6.47;77.28;102430.53;5031446;28;19920;-60
2022/10/09 03:30:49;;;;;;;;;;;;;;;6.40;77.17;102421.34;5028122;28;19917;-60
2022/10/09 03:33:14;;;;;;;;;;;;;;;6.35;77.15;102414.66;5032724;28;19921;-60
2022/10/09 03:35:40;;;;;;;;;;;;;;;6.26;76.93;102418.78;5027042;28;19995;-60
2022/10/09 03:38:05;;;;;;;;;;;;;;;6.23;76.82;102426.91;5022038;28;19968;-61
2022/10/09 03:40:30;;;;;;;;;;;;;;;6.22;76.97;102423.44;5028017;28;19916;-61
2022/10/09 03:42:55;;;;;;;;;;;;;;;6.22;77.08;102419.94;5023796;28;20004;-60
2022/10/09 03:45:20;;;;;;;;;;;;;;;6.24;77.25;102417.22;5026266;28;19956;-61
2022/10/09 03:47:46;;;;;;;;;;;;;;;6.24;77.19;102425.97;5021871;28;19980;-60
2022/10/09 03:50:11;;;;;;;;;;;;;;;6.28;77.44;102423.97;5028431;28;19948;-60
2022/10/09 03:52:36;;;;;;;;;;;;;;;6.30;77.61;102417.63;5027079;28;19920;-60
2022/10/09 03:55:01;;;;;;;;;;;;;;;6.33;77.68;102429.75;5029839;28;19913;-60
2022/10/09 03:57:26;;;;;;;;;;;;;;;6.34;77.49;102428.81;5025987;28;19944;-60
2022/10/09 03:59:52;;;;;;;;;;;;;;;6.31;77.70;102427.22;5031281;28;19921;-60
2022/10/09 04:02:17;;;;;;;;;;;;;;;6.28;77.65;102434.50;5024288;28;19927;-60
2022/10/09 04:04:42;;;;;;;;;;;;;;;6.23;77.77;102421.63;5028883;28;19917;-60
2022/10/09 04:07:07;;;;;;;;;;;;;;;6.22;77.88;102426.06;5030643;28;19921;-60
2022/10/09 04:09:32;;;;;;;;;;;;;;;6.21;77.80;102428.81;5030605;28;19925;-60
2022/10/09 04:11:57;;;;;;;;;;;;;;;6.18;77.81;102421.09;5026165;28;19917;-60
2022/10/09 04:14:23;;;;;;;;;;;;;;;6.16;77.85;102423.00;5025461;28;19986;-58
2022/10/09 04:16:48;;;;;;;;;;;;;;;6.16;77.90;102428.28;5024385;28;19921;-60
2022/10/09 04:19:13;;;;;;;;;;;;;;;6.16;77.66;102420.38;5032360;28;19970;-59
2022/10/09 04:21:38;;;;;;;;;;;;;;;6.15;77.99;102418.69;5030873;28;19928;-60
2022/10/09 04:24:07;;;;;;;;;;;;;;;6.14;77.84;102424.91;5031968;28;20361;-60
2022/10/09 04:26:32;;;;;;;;;;;;;;;6.14;78.04;102430.19;5026652;28;19921;-60
2022/10/09 04:28:57;;;;;;;;;;;;;;;6.12;77.83;102425.00;5023343;28;19924;-60
2022/10/09 04:31:22;;;;;;;;;;;;;;;6.13;77.60;102431.13;5024731;28;20060;-60
2022/10/09 04:33:47;;;;;;;;;;;;;;;6.11;77.72;102412.78;5025982;28;19917;-60
2022/10/09 04:36:13;;;;;;;;;;;;;;;6.09;77.76;102419.09;5027015;28;20013;-60
2022/10/09 04:38:38;;;;;;;;;;;;;;;6.06;77.89;102424.53;5022342;28;19917;-60
2022/10/09 04:41:04;;;;;;;;;;;;;;;6.04;77.89;102415.91;5027367;28;19978;-60
2022/10/09 04:43:29;;;;;;;;;;;;;;;6.01;78.05;102411.69;5022282;28;19925;-61
2022/10/09 04:45:55;;;;;;;;;;;;;;;5.99;77.83;102420.63;5030437;28;19928;-60
2022/10/09 04:48:21;;;;;;;;;;;;;;;5.96;77.94;102413.78;5031254;28;19917;-60
2022/10/09 04:50:46;;;;;;;;;;;;;;;5.94;77.95;102409.56;5022658;28;19923;-60
2022/10/09 04:53:11;;;;;;;;;;;;;;;5.93;77.93;102407.88;5024092;28;19921;-60
2022/10/09 04:55:40;;;;;;;;;;;;;;;5.92;78.06;102411.44;5024928;28;19921;-60
2022/10/09 04:58:06;;;;;;;;;;;;;;;5.90;77.90;102396.59;5030596;28;19925;-60
2022/10/09 05:00:31;;;;;;;;;;;;;;;5.88;78.20;102400.25;5026270;28;19923;-60
2022/10/09 05:02:56;;;;;;;;;;;;;;;5.85;78.05;102409.19;5022738;28;20364;-60
2022/10/09 05:05:21;;;;;;;;;;;;;;;5.86;77.70;102408.25;5029211;28;20028;-60
2022/10/09 05:07:46;;;;;;;;;;;;;;;5.87;77.68;102401.19;5028695;28;20011;-60
2022/10/09 05:10:12;;;;;;;;;;;;;;;5.86;77.81;102402.97;5025716;28;20351;-60
2022/10/09 05:12:37;;;;;;;;;;;;;;;5.86;77.69;102397.69;5028136;28;20008;-61
2022/10/09 05:15:03;;;;;;;;;;;;;;;5.83;77.94;102397.91;5023647;28;21770;-60
2022/10/09 05:17:28;;;;;;;;;;;;;;;5.82;77.82;102390.94;5023332;28;19920;-60
2022/10/09 05:19:53;;;;;;;;;;;;;;;5.81;77.76;102394.53;5027189;28;19948;-61
2022/10/09 05:22:19;;;;;;;;;;;;;;;5.81;77.77;102383.16;5033353;28;20011;-60
2022/10/09 05:24:44;;;;;;;;;;;;;;;5.80;77.97;102377.03;5025523;28;19975;-61
2022/10/09 05:27:09;;;;;;;;;;;;;;;5.77;77.77;102386.91;5028368;28;19972;-60
2022/10/09 05:29:34;;;;;;;;;;;;;;;5.73;77.90;102383.63;5022675;28;20079;-60
2022/10/09 05:32:00;;;;;;;;;;;;;;;5.73;77.79;102386.25;5030185;28;19917;-60
2022/10/09 05:34:25;;;;;;;;;;;;;;;5.74;77.80;102381.84;5032165;28;19975;-60
2022/10/09 05:36:50;;;;;;;;;;;;;;;5.73;77.87;102388.91;5031183;28;19960;-60
2022/10/09 05:39:15;;;;;;;;;;;;;;;5.72;77.91;102386.38;5026865;28;19921;-60
2022/10/09 05:41:40;;;;;;;;;;;;;;;5.72;77.86;102384.56;5031769;28;19925;-60
2022/10/09 05:44:05;;;;;;;;;;;;;;;5.72;78.02;102383.72;5025823;28;19927;-60
2022/10/09 05:46:31;;;;;;;;;;;;;;;5.71;78.04;102388.16;5031672;28;19916;-60
2022/10/09 05:48:57;;;;;;;;;;;;;;;5.72;77.85;102394.28;5032584;28;19913;-59
2022/10/09 05:51:22;;;;;;;;;;;;;;;5.73;77.95;102390.69;5026081;28;20328;-60
2022/10/09 05:53:48;;;;;;;;;;;;;;;5.76;77.79;102398.38;5033579;28;19928;-60
2022/10/09 05:56:24;;;;;;;;;;;;;;;5.75;77.84;102387.00;5032629;28;20357;-60
2022/10/09 05:58:51;;;;;;;;;;;;;;;5.73;78.41;102391.53;5029293;28;19913;-61
2022/10/09 06:01:16;;;;;;;;;;;;;;;5.72;78.24;102391.63;5030145;28;19917;-60
2022/10/09 06:03:42;;;;;;;;;;;;;;;5.72;78.19;102394.28;5030481;28;19917;-60
2022/10/09 06:06:10;;;;;;;;;;;;;;;5.74;78.21;102389.75;5026299;28;19925;-60
2022/10/09 06:08:36;;;;;;;;;;;;;;;5.74;78.39;102390.59;5024955;28;19944;-60
2022/10/09 06:11:12;;;;;;;;;;;;;;;5.76;78.31;102395.75;5025350;28;19983;-60
2022/10/09 06:13:37;;;;;;;;;;;;;;;5.77;78.47;102394.81;5027779;28;20335;-60
2022/10/09 06:16:03;;;;;;;;;;;;;;;5.77;78.56;102392.16;5025881;28;19917;-60
2022/10/09 06:18:28;;;;;;;;;;;;;;;5.75;78.56;102392.28;5026572;28;19925;-60
2022/10/09 06:20:54;;;;;;;;;;;;;;;5.74;78.65;102390.59;5025001;28;19988;-60
2022/10/09 06:23:19;;;;;;;;;;;;;;;5.76;78.57;102401.88;5029887;28;19924;-59
2022/10/09 06:25:54;;;;;;;;;;;;;;;5.79;78.76;102395.59;5029608;28;19917;-60
2022/10/09 06:28:19;;;;;;;;;;;;;;;5.82;78.76;102398.00;5026996;28;20451;-60
2022/10/09 06:30:45;;;;;;;;;;;;;;;5.85;78.76;102396.00;5025059;28;20012;-59
2022/10/09 06:33:10;;;;;;;;;;;;;;;5.89;79.10;102394.91;5026135;28;20432;-60
2022/10/09 06:35:35;;;;;;;;;;;;;;;5.94;79.31;102399.00;5032441;28;19948;-60
2022/10/09 06:38:00;;;;;;;;;;;;;;;6.02;79.52;102401.97;5027606;28;19934;-60
2022/10/09 06:40:25;;;;;;;;;;;;;;;6.07;79.70;102394.59;5024793;28;19967;-60
2022/10/09 06:42:51;;;;;;;;;;;;;;;6.11;79.71;102398.75;5024739;28;19917;-60
2022/10/09 06:45:16;;;;;;;;;;;;;;;6.16;79.63;102399.25;5026696;28;20335;-60
2022/10/09 06:47:41;;;;;;;;;;;;;;;6.19;79.88;102393.78;5021145;28;20454;-60
2022/10/09 06:50:06;;;;;;;;;;;;;;;6.24;80.36;102394.31;5030885;28;19913;-60
2022/10/09 06:52:32;;;;;;;;;;;;;;;6.28;80.16;102398.44;5024325;28;19924;-60
2022/10/09 06:54:57;;;;;;;;;;;;;;;6.32;80.12;102394.63;5011394;28;19921;-60
2022/10/09 06:57:22;;;;;;;;;;;;;;;6.37;80.35;102389.06;5021226;28;19929;-60
2022/10/09 06:59:49;;;;;;;;;;;;;;;6.42;80.29;102397.50;5029329;28;20007;-60
2022/10/09 07:02:14;;;;;;;;;;;;;;;6.49;80.70;102402.25;5031256;28;19956;-60
2022/10/09 07:04:39;;;;;;;;;;;;;;;6.56;80.78;102397.38;5026948;28;19957;-60
2022/10/09 07:07:04;;;;;;;;;;;;;;;6.62;81.11;102396.09;5028335;28;20310;-60
2022/10/09 07:09:30;;;;;;;;;;;;;;;6.68;81.45;102398.34;5027575;28;19917;-60
2022/10/09 07:11:55;;;;;;;;;;;;;;;6.74;81.85;102401.38;5028019;28;19991;-60
2022/10/09 07:14:20;;;;;;;;;;;;;;;6.82;81.75;102400.84;5025601;28;19913;-60
2022/10/09 07:16:47;;;;;;;;;;;;;;;6.89;81.84;102399.44;5022884;28;19932;-60
2022/10/09 07:19:13;;;;;;;;;;;;;;;6.98;82.10;102398.81;5023256;28;19921;-60
2022/10/09 07:21:43;;;;;;;;;;;;;;;7.06;81.80;102403.53;5025309;28;19921;-61
2022/10/09 07:24:08;;;;;;;;;;;;;;;7.12;81.74;102397.81;5025073;28;19921;-61
2022/10/09 07:26:34;;;;;;;;;;;;;;;7.20;81.88;102402.53;5031493;28;19944;-61
2022/10/09 07:29:01;;;;;;;;;;;;;;;7.28;81.26;102397.56;5021585;28;19917;-61
2022/10/09 07:31:26;;;;;;;;;;;;;;;7.34;81.73;102394.47;5025269;28;19917;-61
2022/10/09 07:33:52;;;;;;;;;;;;;;;7.40;81.14;102400.16;5025420;28;19925;-61
2022/10/09 07:36:18;;;;;;;;;;;;;;;7.48;81.73;102394.31;5022258;28;19921;-61
2022/10/09 07:38:43;;;;;;;;;;;;;;;7.57;82.05;102398.09;5024625;28;19929;-61
2022/10/09 07:41:09;;;;;;;;;;;;;;;7.63;81.71;102400.28;5027725;28;20515;-60
2022/10/09 07:43:35;;;;;;;;;;;;;;;7.73;81.93;102404.75;5027537;28;20436;-61
2022/10/09 07:46:01;;;;;;;;;;;;;;;7.82;81.62;102397.97;5027592;28;19943;-61
2022/10/09 07:48:26;;;;;;;;;;;;;;;7.89;81.50;102406.28;5029071;28;20423;-61
2022/10/09 07:50:52;;;;;;;;;;;;;;;7.97;81.80;102390.66;5027993;28;19967;-61
2022/10/09 07:53:18;;;;;;;;;;;;;;;8.07;82.89;102391.66;5026270;28;19921;-61
2022/10/09 07:55:45;;;;;;;;;;;;;;;8.18;83.24;102399.63;5026867;28;19928;-61
2022/10/09 07:58:10;;;;;;;;;;;;;;;8.25;82.82;102392.91;5025388;28;19928;-60
2022/10/09 08:00:35;;;;;;;;;;;;;;;8.33;83.04;102390.53;5028919;28;20601;-62
2022/10/09 08:03:00;;;;;;;;;;;;;;;8.40;82.84;102395.38;5022595;28;19936;-61
2022/10/09 08:05:25;;;;;;;;;;;;;;;8.45;82.57;102390.56;5024584;28;19980;-61
2022/10/09 08:07:51;;;;;;;;;;;;;;;8.52;82.87;102389.13;5035694;28;19975;-61
2022/10/09 08:10:16;;;;;;;;;;;;;;;8.59;81.78;102387.69;5023735;28;19930;-61
2022/10/09 08:12:41;;;;;;;;;;;;;;;8.64;81.57;102385.50;5025945;28;19952;-61
2022/10/09 08:15:06;;;;;;;;;;;;;;;8.71;81.87;102384.09;5022941;28;19959;-61
2022/10/09 08:17:32;;;;;;;;;;;;;;;8.77;82.18;102385.41;5017753;28;19921;-61
2022/10/09 08:19:57;;;;;;;;;;;;;;;8.84;82.48;102381.31;5014512;28;19917;-61
2022/10/09 08:22:22;;;;;;;;;;;;;;;8.93;82.40;102380.56;5019430;28;19967;-61
2022/10/09 08:24:47;;;;;;;;;;;;;;;9.00;82.53;102374.69;5026459;28;19921;-61
2022/10/09 08:27:12;;;;;;;;;;;;;;;9.09;82.41;102381.03;5033900;28;19943;-61
2022/10/09 08:29:37;;;;;;;;;;;;;;;9.17;82.45;102375.13;5027610;28;19925;-61
2022/10/09 08:32:03;;;;;;;;;;;;;;;9.26;83.00;102374.41;5026481;28;20502;-61
2022/10/09 08:34:28;;;;;;;;;;;;;;;9.34;82.57;102381.72;5027064;28;19981;-61
2022/10/09 08:36:53;;;;;;;;;;;;;;;9.41;82.55;102381.09;5020737;28;20300;-61
2022/10/09 08:39:18;;;;;;;;;;;;;;;9.48;82.40;102370.81;5028065;28;19944;-61
2022/10/09 08:41:45;;;;;;;;;;;;;;;9.54;82.35;102368.53;5023018;28;19917;-61
2022/10/09 08:44:19;;;;;;;;;;;;;;;9.63;82.27;102366.91;5024965;28;19917;-61
2022/10/09 08:47:03;;;;;;;;;;;;;;;9.69;82.42;102350.47;5023971;28;20008;-61
2022/10/09 08:50:01;;;;;;;;;;;;;;;9.82;82.30;102352.94;5024034;28;20277;-61
2022/10/09 08:52:35;;;;;;;;;;;;;;;9.92;82.37;102356.53;4983548;28;20490;-61
2022/10/09 08:55:07;;;;;;;;;;;;;;;10.02;82.43;102353.94;5025998;28;19978;-61
2022/10/09 08:57:33;;;;;;;;;;;;;;;10.08;81.90;102353.41;5028128;28;19917;-61
2022/10/09 08:59:58;;;;;;;;;;;;;;;10.15;81.90;102355.44;5026159;28;19921;-61
2022/10/09 09:02:32;;;;;;;;;;;;;;;10.24;81.98;102352.00;5026652;28;20369;-61
2022/10/09 09:05:18;;;;;;;;;;;;;;;10.34;81.64;102343.25;5027940;28;19964;-61
2022/10/09 09:07:54;;;;;;;;;;;;;;;10.43;81.86;102345.13;5029498;28;20018;-61
2022/10/09 09:10:19;;;;;;;;;;;;;;;10.51;81.61;102342.63;5029484;28;19921;-61
2022/10/09 09:12:52;;;;;;;;;;;;;;;10.60;81.44;102330.38;5029845;28;19920;-61
2022/10/09 09:15:28;;;;;;;;;;;;;;;10.72;81.85;102338.13;5026638;28;20044;-61
2022/10/09 09:17:53;;;;;;;;;;;;;;;10.83;81.19;102329.19;5031780;28;19917;-61
2022/10/09 09:20:21;;;;;;;;;;;;;;;10.91;80.89;102337.31;5028595;28;20015;-61
2022/10/09 09:22:47;;;;;;;;;;;;;;;10.99;80.93;102329.53;5030968;28;20556;-61
2022/10/09 09:25:18;;;;;;;;;;;;;;;11.07;80.36;102321.69;5030591;28;19998;-61
2022/10/09 09:27:43;;;;;;;;;;;;;;;11.16;79.89;102317.34;5029372;28;20559;-61
2022/10/09 09:30:11;;;;;;;;;;;;;;;11.24;79.70;102317.50;5030061;28;19913;-61
2022/10/09 09:32:49;;;;;;;;;;;;;;;11.32;79.83;102315.00;5028957;28;19932;-61
2022/10/09 09:35:17;;;;;;;;;;;;;;;11.41;79.71;102305.34;5024709;28;19923;-61
2022/10/09 09:37:42;;;;;;;;;;;;;;;11.48;79.25;102295.81;5029549;28;19917;-61
2022/10/09 09:40:12;;;;;;;;;;;;;;;11.56;78.67;102295.94;5027026;28;19913;-61
2022/10/09 09:42:38;;;;;;;;;;;;;;;11.64;78.46;102292.59;5032151;28;19964;-61
2022/10/09 09:45:05;;;;;;;;;;;;;;;11.72;78.22;102287.38;5031257;28;20369;-61
2022/10/09 09:47:42;;;;;;;;;;;;;;;11.83;78.05;102283.75;5029659;28;19959;-61
2022/10/09 09:50:07;;;;;;;;;;;;;;;11.92;78.24;102291.72;5027779;28;19913;-61
2022/10/09 09:52:34;;;;;;;;;;;;;;;12.00;78.02;102275.88;5033832;28;19913;-62
2022/10/09 09:55:00;;;;;;;;;;;;;;;12.07;77.27;102276.97;5029971;28;19913;-60
2022/10/09 09:57:28;;;;;;;;;;;;;;;12.15;77.13;102275.41;5032010;28;19917;-60
2022/10/09 09:59:53;;;;;;;;;;;;;;;12.22;76.60;102273.84;5030191;28;19971;-60
2022/10/09 10:02:22;;;;;;;;;;;;;;;12.28;76.41;102275.91;5031241;28;19917;-60
2022/10/09 10:04:50;;;;;;;;;;;;;;;12.36;76.49;102265.34;5027453;28;19918;-60
2022/10/09 10:07:26;;;;;;;;;;;;;;;12.43;76.67;102262.94;5032114;28;19914;-61
2022/10/09 10:09:59;;;;;;;;;;;;;;;12.51;76.38;102268.38;5029340;28;20411;-60
2022/10/09 10:12:25;;;;;;;;;;;;;;;12.57;76.03;102265.13;5028820;28;20573;-61
2022/10/09 10:14:50;;;;;;;;;;;;;;;12.63;75.50;102256.53;5022454;28;19913;-60
2022/10/09 10:17:23;;;;;;;;;;;;;;;12.69;75.48;102267.41;5029253;28;19933;-60
2022/10/09 10:19:49;;;;;;;;;;;;;;;12.77;75.47;102263.19;5027980;28;19944;-60
2022/10/09 10:22:24;;;;;;;;;;;;;;;12.83;75.05;102265.25;5030717;28;19964;-61
2022/10/09 10:24:51;;;;;;;;;;;;;;;12.88;74.73;102257.63;5030663;28;19963;-61
2022/10/09 10:27:39;;;;;;;;;;;;;;;12.93;74.16;102263.34;5027337;28;19924;-61
2022/10/09 10:30:05;;;;;;;;;;;;;;;12.98;73.55;102250.41;5029022;28;19946;-61
2022/10/09 10:32:37;;;;;;;;;;;;;;;13.05;73.56;102246.16;5024108;28;20403;-60
2022/10/09 10:35:13;;;;;;;;;;;;;;;13.11;73.07;102250.88;5030607;28;19913;-60
2022/10/09 10:37:41;;;;;;;;;;;;;;;13.18;72.80;102235.13;5030075;28;19946;-61
2022/10/09 10:40:20;;;;;;;;;;;;;;;13.23;72.63;102223.00;5028016;28;19921;-61
2022/10/09 10:42:51;;;;;;;;;;;;;;;13.30;72.73;102224.06;5032073;28;19912;-60
2022/10/09 10:45:24;;;;;;;;;;;;;;;13.37;72.22;102218.13;5030789;28;19917;-61
2022/10/09 10:47:51;;;;;;;;;;;;;;;13.41;71.89;102214.13;5029432;28;19920;-61
2022/10/09 10:50:18;;;;;;;;;;;;;;;13.47;71.67;102214.34;5024463;28;20465;-60
2022/10/09 10:53:02;;;;;;;;;;;;;;;13.53;71.88;102215.53;5027911;28;21256;-61
2022/10/09 10:55:30;;;;;;;;;;;;;;;13.58;71.15;102206.06;5019841;28;20007;-61
2022/10/09 10:58:04;;;;;;;;;;;;;;;13.63;71.23;102202.97;5029069;28;19928;-61
2022/10/09 11:00:32;;;;;;;;;;;;;;;13.70;70.62;102200.50;5016721;28;19924;-61
2022/10/09 11:03:16;;;;;;;;;;;;;;;13.75;70.63;102190.16;5025114;28;19925;-61
2022/10/09 11:05:56;;;;;;;;;;;;;;;13.84;70.42;102194.53;5021016;28;19936;-61
2022/10/09 11:08:38;;;;;;;;;;;;;;;13.90;70.45;102188.59;5021450;28;19979;-61
2022/10/09 11:11:21;;;;;;;;;;;;;;;13.98;70.59;102187.78;5029398;28;20451;-61
2022/10/09 11:13:52;;;;;;;;;;;;;;;14.07;70.18;102184.16;5021603;28;20011;-61
2022/10/09 11:16:39;;;;;;;;;;;;;;;14.19;69.48;102182.88;5024293;28;19943;-61
2022/10/09 11:19:04;;;;;;;;;;;;;;;14.35;69.14;102169.56;5024254;28;20014;-61
2022/10/09 11:21:48;;;;;;;;;;;;;;;14.45;69.28;102170.28;5023475;28;19976;-60
2022/10/09 11:24:25;;;;;;;;;;;;;;;14.59;68.34;102174.16;5030848;28;19913;-60
2022/10/09 11:27:00;;;;;;;;;;;;;;;14.70;68.38;102165.81;5029325;28;19920;-60
2022/10/09 11:29:31;;;;;;;;;;;;;;;14.81;68.27;102162.84;5024161;28;19913;-61
2022/10/09 11:32:09;;;;;;;;;;;;;;;14.93;66.90;102157.16;5027115;28;20415;-61
2022/10/09 11:34:38;;;;;;;;;;;;;;;15.06;65.83;102150.31;5029721;28;19913;-61
2022/10/09 11:37:07;;;;;;;;;;;;;;;15.17;65.41;102149.97;5035367;28;19932;-61
2022/10/09 11:39:35;;;;;;;;;;;;;;;15.29;65.84;102150.44;5029650;28;19917;-60
2022/10/09 11:42:00;;;;;;;;;;;;;;;15.33;64.34;102142.94;5027525;28;19932;-60
2022/10/09 11:44:28;;;;;;;;;;;;;;;15.39;64.58;102136.88;5026356;28;19917;-60
2022/10/09 11:47:02;;;;;;;;;;;;;;;15.46;64.78;102135.19;5027112;28;19925;-61
2022/10/09 11:49:46;;;;;;;;;;;;;;;15.51;64.58;102140.84;5031702;28;19928;-61
2022/10/09 11:52:30;;;;;;;;;;;;;;;15.59;61.92;102135.50;5022350;28;19917;-62
2022/10/09 11:55:05;;;;;;;;;;;;;;;15.72;60.64;102124.28;5034124;28;20372;-61
2022/10/09 11:57:32;;;;;;;;;;;;;;;15.79;61.48;102111.84;5027272;28;19967;-61
2022/10/09 12:00:08;;;;;;;;;;;;;;;15.87;60.29;102114.47;5019493;28;19951;-61
2022/10/09 12:02:34;;;;;;;;;;;;;;;15.90;61.25;102115.97;5021154;28;19917;-61
2022/10/09 12:04:59;;;;;;;;;;;;;;;15.96;60.49;102107.25;5022383;28;19917;-62
2022/10/09 12:07:29;;;;;;;;;;;;;;;16.08;61.37;102098.66;5021256;28;19932;-61
2022/10/09 12:10:01;;;;;;;;;;;;;;;16.19;61.35;102093.88;5022848;28;20380;-61
2022/10/09 12:12:27;;;;;;;;;;;;;;;16.24;61.13;102091.53;5025480;28;19952;-61
2022/10/09 12:14:52;;;;;;;;;;;;;;;16.31;58.61;102085.28;5029172;28;19963;-62
2022/10/09 12:17:20;;;;;;;;;;;;;;;16.38;59.17;102072.81;5030182;28;20305;-61
2022/10/09 12:19:45;;;;;;;;;;;;;;;16.44;58.14;102068.59;5028946;28;19924;-61
2022/10/09 12:22:19;;;;;;;;;;;;;;;16.51;57.02;102066.88;5027786;28;20304;-62
2022/10/09 12:24:46;;;;;;;;;;;;;;;16.59;57.40;102057.94;5028455;28;19913;-61
2022/10/09 12:27:17;;;;;;;;;;;;;;;16.65;57.26;102057.19;5034199;28;19920;-61
2022/10/09 12:29:44;;;;;;;;;;;;;;;16.79;57.81;102044.88;5031454;28;19914;-62
2022/10/09 12:32:28;;;;;;;;;;;;;;;16.86;57.48;102043.97;5025114;28;19941;-61
2022/10/09 12:34:54;;;;;;;;;;;;;;;16.92;57.37;102037.88;5025445;28;19924;-61
2022/10/09 12:37:20;;;;;;;;;;;;;;;16.97;56.37;102030.09;5021915;28;19921;-61
2022/10/09 12:39:46;;;;;;;;;;;;;;;17.11;56.57;102030.31;5025982;28;19924;-61
2022/10/09 12:42:17;;;;;;;;;;;;;;;17.21;57.39;102031.69;5027344;28;19924;-61
2022/10/09 12:44:44;;;;;;;;;;;;;;;17.28;58.10;102026.41;5021330;28;19917;-62
2022/10/09 12:47:16;;;;;;;;;;;;;;;17.33;56.62;102021.31;5023952;28;19921;-61